createdAt,value
2023-05-13T00:02:16.332Z,8.19
2023-05-13T00:04:45.740Z,8.20
2023-05-13T00:07:14.683Z,8.25
2023-05-13T00:09:43.768Z,8.32
2023-05-13T00:12:12.825Z,8.42
2023-05-13T00:14:41.821Z,8.49
2023-05-13T00:17:14.677Z,8.53
2023-05-13T00:19:43.437Z,8.53
2023-05-13T00:22:12.296Z,8.46
2023-05-13T00:24:41.280Z,8.42
2023-05-13T00:27:11.479Z,8.35
2023-05-13T00:29:40.497Z,8.28
2023-05-13T00:32:09.562Z,8.21
2023-05-13T00:34:39.478Z,8.18
2023-05-13T00:37:10.550Z,8.16
2023-05-13T00:39:39.685Z,8.10
2023-05-13T00:42:11.300Z,8.07
2023-05-13T00:44:40.939Z,8.03
2023-05-13T00:47:12.478Z,7.99
2023-05-13T00:49:42.572Z,7.93
2023-05-13T00:52:11.843Z,7.89
2023-05-13T00:54:40.997Z,7.93
2023-05-13T00:57:10.084Z,7.99
2023-05-13T00:59:38.957Z,8.01
2023-05-13T01:02:11.640Z,8.05
2023-05-13T01:04:46.024Z,8.10
2023-05-13T01:07:22.247Z,8.19
2023-05-13T01:09:57.262Z,8.27
2023-05-13T01:12:32.938Z,8.35
2023-05-13T01:15:06.825Z,8.43
2023-05-13T01:17:41.820Z,8.51
2023-05-13T01:20:13.080Z,8.58
2023-05-13T01:22:43.188Z,8.59
2023-05-13T01:25:12.351Z,8.56
2023-05-13T01:27:41.944Z,8.49
2023-05-13T01:30:13.090Z,8.41
2023-05-13T01:32:42.532Z,8.31
2023-05-13T01:35:12.611Z,8.23
2023-05-13T01:37:46.973Z,8.22
2023-05-13T01:40:31.122Z,8.21
2023-05-13T01:43:04.303Z,8.22
2023-05-13T01:45:33.624Z,8.21
2023-05-13T01:48:03.434Z,8.14
2023-05-13T01:50:42.719Z,8.00
2023-05-13T01:53:13.562Z,7.87
2023-05-13T01:55:42.553Z,7.64
2023-05-13T01:58:11.718Z,7.54
2023-05-13T02:00:41.701Z,7.34
2023-05-13T02:03:10.862Z,7.07
2023-05-13T02:05:39.972Z,6.92
2023-05-13T02:08:10.635Z,6.88
2023-05-13T02:10:41.808Z,6.86
2023-05-13T02:13:11.001Z,6.87
2023-05-13T02:15:41.223Z,6.88
2023-05-13T02:18:10.217Z,6.98
2023-05-13T02:20:39.274Z,7.17
2023-05-13T02:23:09.562Z,7.27
2023-05-13T02:25:38.261Z,7.34
2023-05-13T02:28:08.750Z,7.41
2023-05-13T02:30:37.761Z,7.51
2023-05-13T02:33:08.635Z,7.59
2023-05-13T02:35:37.566Z,7.63
2023-05-13T02:38:07.121Z,7.68
2023-05-13T02:40:36.445Z,7.71
2023-05-13T02:43:05.755Z,7.70
2023-05-13T02:45:58.654Z,7.69
2023-05-13T02:48:28.099Z,7.67
2023-05-13T02:50:57.090Z,7.64
2023-05-13T02:53:26.141Z,7.66
2023-05-13T02:55:58.373Z,7.71
2023-05-13T02:58:28.577Z,7.77
2023-05-13T03:00:59.557Z,7.83
2023-05-13T03:03:29.298Z,7.87
2023-05-13T03:05:58.495Z,7.93
2023-05-13T03:08:27.451Z,7.99
2023-05-13T03:10:55.923Z,8.04
2023-05-13T03:13:24.848Z,8.09
2023-05-13T03:15:53.797Z,8.13
2023-05-13T03:18:24.182Z,8.17
2023-05-13T03:20:53.743Z,8.19
2023-05-13T03:23:22.556Z,8.17
2023-05-13T03:25:53.612Z,8.14
2023-05-13T03:28:22.598Z,8.16
2023-05-13T03:30:52.319Z,8.18
2023-05-13T03:33:21.622Z,8.22
2023-05-13T03:35:52.077Z,8.28
2023-05-13T03:38:26.710Z,8.34
2023-05-13T03:40:55.836Z,8.54
2023-05-13T03:43:25.001Z,8.75
2023-05-13T03:45:58.893Z,8.91
2023-05-13T03:48:28.501Z,9.01
2023-05-13T03:51:01.666Z,9.08
2023-05-13T03:53:31.364Z,9.16
2023-05-13T03:56:00.306Z,9.21
2023-05-13T03:58:29.922Z,9.20
2023-05-13T04:01:00.170Z,9.16
2023-05-13T04:03:54.538Z,9.23
2023-05-13T04:06:25.122Z,9.32
2023-05-13T04:08:54.025Z,9.44
2023-05-13T04:11:22.904Z,9.50
2023-05-13T04:13:51.642Z,9.50
2023-05-13T04:16:21.455Z,9.70
2023-05-13T04:18:50.643Z,9.92
2023-05-13T04:21:19.543Z,9.83
2023-05-13T04:23:52.098Z,10.15
2023-05-13T04:26:21.730Z,10.49
2023-05-13T04:28:51.008Z,10.83
2023-05-13T04:31:21.432Z,11.09
2023-05-13T04:33:50.514Z,11.31
2023-05-13T04:36:20.207Z,11.37
2023-05-13T04:38:49.116Z,11.42
2023-05-13T04:41:21.356Z,11.34
2023-05-13T04:43:50.935Z,11.29
2023-05-13T04:46:20.036Z,11.32
2023-05-13T04:48:51.012Z,11.27
2023-05-13T04:51:20.812Z,11.20
2023-05-13T04:53:50.117Z,11.13
2023-05-13T04:56:21.920Z,11.05
2023-05-13T04:58:51.165Z,11.07
2023-05-13T05:01:22.347Z,10.80
2023-05-13T05:03:52.589Z,10.12
2023-05-13T05:06:21.985Z,10.36
2023-05-13T05:08:51.035Z,10.57
2023-05-13T05:11:21.467Z,11.00
2023-05-13T05:13:49.992Z,11.39
2023-05-13T05:16:19.639Z,11.83
2023-05-13T05:18:48.724Z,12.27
2023-05-13T05:21:18.790Z,12.03
2023-05-13T05:23:48.470Z,12.55
2023-05-13T05:26:17.413Z,12.74
2023-05-13T05:28:47.706Z,12.43
2023-05-13T05:31:18.679Z,12.30
2023-05-13T05:33:47.685Z,11.98
2023-05-13T05:36:16.635Z,11.73
2023-05-13T05:38:45.582Z,11.43
2023-05-13T05:41:14.922Z,11.54
2023-05-13T05:43:44.072Z,11.40
2023-05-13T05:46:14.659Z,11.76
2023-05-13T05:48:43.840Z,11.39
2023-05-13T05:51:12.774Z,11.43
2023-05-13T05:53:42.432Z,11.67
2023-05-13T05:56:13.720Z,11.89
2023-05-13T05:58:43.259Z,12.54
2023-05-13T06:01:13.775Z,12.80
2023-05-13T06:03:42.488Z,12.86
2023-05-13T06:06:11.758Z,13.51
2023-05-13T06:08:40.658Z,13.87
2023-05-13T06:11:11.452Z,14.28
2023-05-13T06:13:39.982Z,14.77
2023-05-13T06:16:09.012Z,15.07
2023-05-13T06:18:41.640Z,15.22
2023-05-13T06:21:10.634Z,15.34
2023-05-13T06:23:39.991Z,15.27
2023-05-13T06:26:08.929Z,14.70
2023-05-13T06:28:37.384Z,14.31
2023-05-13T06:31:06.451Z,14.63
2023-05-13T06:33:35.549Z,14.80
2023-05-13T06:36:06.746Z,15.06
2023-05-13T06:38:36.417Z,15.27
2023-05-13T06:41:06.322Z,15.44
2023-05-13T06:43:37.008Z,15.64
2023-05-13T06:46:15.716Z,15.89
2023-05-13T06:48:45.217Z,15.88
2023-05-13T06:51:15.603Z,16.06
2023-05-13T06:53:44.592Z,16.18
2023-05-13T06:56:13.537Z,16.12
2023-05-13T06:58:42.224Z,16.23
2023-05-13T07:01:11.233Z,16.26
2023-05-13T07:03:40.489Z,16.45
2023-05-13T07:06:09.634Z,16.62
2023-05-13T07:08:40.895Z,16.61
2023-05-13T07:11:09.885Z,16.79
2023-05-13T07:13:39.261Z,16.96
2023-05-13T07:16:08.734Z,17.18
2023-05-13T07:18:37.706Z,17.30
2023-05-13T07:21:06.964Z,17.32
2023-05-13T07:23:36.128Z,17.43
2023-05-13T07:26:09.346Z,17.48
2023-05-13T07:28:37.972Z,17.62
2023-05-13T07:31:07.113Z,17.70
2023-05-13T07:33:37.332Z,18.07
2023-05-13T07:36:07.195Z,18.42
2023-05-13T07:38:36.475Z,18.83
2023-05-13T07:41:07.131Z,19.12
2023-05-13T07:43:35.509Z,19.00
2023-05-13T07:46:04.389Z,19.07
2023-05-13T07:48:33.771Z,19.30
2023-05-13T07:51:03.396Z,19.32
2023-05-13T07:53:32.442Z,19.14
2023-05-13T07:56:01.405Z,19.30
2023-05-13T07:58:31.417Z,19.41
2023-05-13T08:01:00.319Z,19.61
2023-05-13T08:03:29.396Z,19.60
2023-05-13T08:05:58.648Z,19.77
2023-05-13T08:08:27.654Z,19.35
2023-05-13T08:10:56.130Z,19.30
2023-05-13T08:13:25.750Z,19.65
2023-05-13T08:15:56.322Z,18.88
2023-05-13T08:18:25.422Z,18.80
2023-05-13T08:20:54.289Z,19.27
2023-05-13T08:23:40.338Z,19.42
2023-05-13T08:26:12.607Z,19.50
2023-05-13T08:28:42.566Z,20.18
2023-05-13T08:31:14.312Z,20.53
2023-05-13T08:33:46.088Z,20.80
2023-05-13T08:36:16.481Z,20.36
2023-05-13T08:38:45.767Z,20.35
2023-05-13T08:41:15.378Z,19.30
2023-05-13T08:43:44.586Z,19.35
2023-05-13T08:46:17.925Z,18.71
2023-05-13T08:48:47.506Z,18.62
2023-05-13T08:51:16.564Z,19.40
2023-05-13T08:53:45.887Z,19.65
2023-05-13T08:56:14.922Z,20.12
2023-05-13T08:58:43.536Z,19.05
2023-05-13T09:01:12.657Z,18.02
2023-05-13T09:03:57.418Z,19.17
2023-05-13T09:06:26.426Z,18.25
2023-05-13T09:08:56.179Z,18.32
2023-05-13T09:11:25.363Z,18.46
2023-05-13T09:14:00.476Z,19.44
2023-05-13T09:16:30.572Z,20.25
2023-05-13T09:19:01.482Z,20.90
2023-05-13T09:21:32.728Z,21.83
2023-05-13T09:24:10.341Z,22.57
2023-05-13T09:26:43.468Z,22.57
2023-05-13T09:29:23.830Z,22.65
2023-05-13T09:31:54.204Z,22.99
2023-05-13T09:34:31.797Z,22.98
2023-05-13T09:37:05.228Z,23.78
2023-05-13T09:39:35.874Z,24.44
2023-05-13T09:42:05.687Z,25.32
2023-05-13T09:44:35.311Z,25.42
2023-05-13T09:47:04.886Z,25.48
2023-05-13T09:49:35.043Z,25.78
2023-05-13T09:52:10.098Z,24.46
2023-05-13T09:54:39.474Z,23.68
2023-05-13T09:57:08.449Z,22.86
2023-05-13T09:59:37.453Z,26.03
2023-05-13T10:02:07.882Z,28.17
2023-05-13T10:04:37.586Z,26.15
2023-05-13T10:07:07.489Z,25.01
2023-05-13T10:09:37.952Z,27.68
2023-05-13T10:12:09.889Z,30.00
2023-05-13T10:14:39.337Z,29.75
2023-05-13T10:17:09.624Z,27.75
2023-05-13T10:19:39.542Z,26.95
2023-05-13T10:22:08.695Z,26.54
2023-05-13T10:24:39.218Z,25.55
2023-05-13T10:27:08.609Z,23.79
2023-05-13T10:29:39.246Z,25.67
2023-05-13T10:32:09.730Z,26.22
2023-05-13T10:34:39.788Z,24.92
2023-05-13T10:37:38.812Z,22.99
2023-05-13T10:40:33.942Z,22.47
2023-05-13T10:43:12.634Z,21.78
2023-05-13T10:45:41.594Z,21.62
2023-05-13T10:48:13.650Z,22.72
2023-05-13T10:50:53.240Z,25.02
2023-05-13T10:53:25.373Z,24.30
2023-05-13T10:55:55.466Z,23.48
2023-05-13T10:58:30.041Z,22.25
2023-05-13T11:01:15.044Z,22.50
2023-05-13T11:03:46.651Z,26.41
2023-05-13T11:06:19.638Z,27.51
2023-05-13T11:08:49.710Z,25.81
2023-05-13T11:11:18.815Z,24.81
2023-05-13T11:13:47.611Z,23.18
2023-05-13T11:16:16.586Z,22.76
2023-05-13T11:18:46.075Z,22.23
2023-05-13T11:21:15.284Z,22.10
2023-05-13T11:23:58.127Z,21.96
2023-05-13T11:26:27.262Z,21.50
2023-05-13T11:29:00.681Z,21.48
2023-05-13T11:31:30.570Z,21.11
2023-05-13T11:34:10.561Z,23.95
2023-05-13T11:36:41.093Z,29.04
2023-05-13T11:39:13.599Z,32.18
2023-05-13T11:41:43.938Z,32.79
2023-05-13T11:44:14.979Z,32.69
2023-05-13T11:46:53.856Z,30.69
2023-05-13T11:49:33.639Z,27.44
2023-05-13T11:52:03.105Z,25.95
2023-05-13T11:54:33.529Z,24.60
2023-05-13T11:57:02.786Z,23.59
2023-05-13T11:59:41.720Z,22.77
2023-05-13T12:02:16.879Z,22.89
2023-05-13T12:04:45.868Z,22.87
2023-05-13T12:07:15.249Z,22.83
2023-05-13T12:09:45.975Z,23.31
2023-05-13T12:12:14.923Z,27.77
2023-05-13T12:14:44.588Z,28.99
2023-05-13T12:17:14.161Z,26.61
2023-05-13T12:19:44.164Z,26.73
2023-05-13T12:22:13.191Z,28.50
2023-05-13T12:24:42.181Z,31.53
2023-05-13T12:27:13.179Z,34.25
2023-05-13T12:29:43.405Z,36.75
2023-05-13T12:32:13.119Z,37.25
2023-05-13T12:34:41.676Z,36.78
2023-05-13T12:37:12.540Z,38.16
2023-05-13T12:39:42.798Z,37.76
2023-05-13T12:42:19.271Z,38.43
2023-05-13T12:44:48.509Z,37.62
2023-05-13T12:47:20.263Z,39.12
2023-05-13T12:49:55.161Z,38.39
2023-05-13T12:52:24.174Z,35.35
2023-05-13T12:54:53.124Z,32.66
2023-05-13T12:57:24.477Z,32.89
2023-05-13T12:59:53.467Z,33.41
2023-05-13T13:02:22.294Z,33.29
2023-05-13T13:04:50.883Z,31.51
2023-05-13T13:07:19.876Z,29.02
2023-05-13T13:09:48.900Z,27.47
2023-05-13T13:12:17.933Z,28.12
2023-05-13T13:14:48.291Z,27.30
2023-05-13T13:17:17.358Z,29.21
2023-05-13T13:19:45.878Z,32.02
2023-05-13T13:22:14.858Z,31.94
2023-05-13T13:24:43.761Z,30.93
2023-05-13T13:27:13.270Z,27.79
2023-05-13T13:29:42.256Z,30.01
2023-05-13T13:32:13.461Z,31.06
2023-05-13T13:34:42.034Z,31.15
2023-05-13T13:37:11.003Z,29.64
2023-05-13T13:39:41.113Z,30.70
2023-05-13T13:42:10.038Z,31.23
2023-05-13T13:44:39.635Z,31.29
2023-05-13T13:47:08.681Z,32.65
2023-05-13T13:49:38.673Z,32.74
2023-05-13T13:52:08.009Z,33.19
2023-05-13T13:54:37.351Z,33.71
2023-05-13T13:57:07.096Z,30.66
2023-05-13T13:59:36.094Z,30.81
2023-05-13T14:02:05.981Z,28.16
2023-05-13T14:04:36.026Z,28.26
2023-05-13T14:07:08.109Z,29.31
2023-05-13T14:09:37.080Z,30.23
2023-05-13T14:12:07.270Z,30.39
2023-05-13T14:14:36.161Z,30.48
2023-05-13T14:17:05.218Z,30.20
2023-05-13T14:19:33.687Z,30.51
2023-05-13T14:22:02.616Z,30.37
2023-05-13T14:24:33.218Z,30.42
2023-05-13T14:27:02.297Z,27.88
2023-05-13T14:29:31.335Z,27.79
2023-05-13T14:32:02.277Z,28.92
2023-05-13T14:34:31.012Z,29.52
2023-05-13T14:37:00.081Z,30.13
2023-05-13T14:39:30.495Z,31.08
2023-05-13T14:42:04.024Z,30.40
2023-05-13T14:44:33.788Z,29.49
2023-05-13T14:47:04.978Z,30.11
2023-05-13T14:49:33.499Z,29.75
2023-05-13T14:52:02.421Z,30.54
2023-05-13T14:54:35.771Z,30.51
2023-05-13T14:57:07.918Z,30.48
2023-05-13T14:59:37.094Z,31.11
2023-05-13T15:02:06.554Z,31.97
2023-05-13T15:04:35.135Z,32.70
2023-05-13T15:07:04.779Z,33.34
2023-05-13T15:09:33.729Z,32.70
2023-05-13T15:12:02.630Z,32.73
2023-05-13T15:14:33.044Z,32.57
2023-05-13T15:17:02.161Z,32.33
2023-05-13T15:19:31.720Z,33.49
2023-05-13T15:22:00.690Z,34.34
2023-05-13T15:24:29.930Z,34.19
2023-05-13T15:26:59.120Z,34.42
2023-05-13T15:29:28.728Z,33.78
2023-05-13T15:31:59.149Z,31.52
2023-05-13T15:34:28.297Z,29.48
2023-05-13T15:36:57.562Z,27.86
2023-05-13T15:39:26.802Z,26.54
2023-05-13T15:41:56.353Z,25.67
2023-05-13T15:44:25.321Z,24.90
2023-05-13T15:46:54.156Z,24.10
2023-05-13T15:49:24.744Z,23.20
2023-05-13T15:51:55.720Z,22.32
2023-05-13T15:54:24.914Z,21.44
2023-05-13T15:56:55.800Z,20.86
2023-05-13T15:59:25.444Z,20.55
2023-05-13T16:01:54.139Z,20.49
2023-05-13T16:04:24.814Z,20.41
2023-05-13T16:06:53.859Z,20.27
2023-05-13T16:09:22.912Z,20.81
2023-05-13T16:11:51.877Z,21.35
2023-05-13T16:14:20.834Z,21.44
2023-05-13T16:16:49.575Z,20.98
2023-05-13T16:19:18.908Z,21.77
2023-05-13T16:21:49.704Z,23.47
2023-05-13T16:24:19.094Z,25.28
2023-05-13T16:26:48.434Z,27.07
2023-05-13T16:29:17.522Z,28.08
2023-05-13T16:31:46.180Z,29.38
2023-05-13T16:34:15.356Z,30.13
2023-05-13T16:36:44.449Z,31.34
2023-05-13T16:39:15.014Z,31.85
2023-05-13T16:41:44.092Z,32.97
2023-05-13T16:44:13.181Z,33.17
2023-05-13T16:46:41.898Z,33.26
2023-05-13T16:49:10.826Z,32.80
2023-05-13T16:51:39.884Z,32.83
2023-05-13T16:54:09.087Z,32.12
2023-05-13T16:56:39.563Z,32.30
2023-05-13T16:59:10.100Z,32.35
2023-05-13T17:01:38.756Z,31.96
2023-05-13T17:04:07.841Z,31.70
2023-05-13T17:06:37.023Z,31.56
2023-05-13T17:09:07.253Z,31.41
2023-05-13T17:11:38.918Z,30.77
2023-05-13T17:14:08.096Z,30.73
2023-05-13T17:16:37.130Z,30.10
2023-05-13T17:19:06.355Z,28.90
2023-05-13T17:21:35.333Z,28.08
2023-05-13T17:24:04.484Z,23.45
2023-05-13T17:26:34.583Z,19.22
2023-05-13T17:29:06.212Z,18.93
2023-05-13T17:31:35.179Z,18.07
2023-05-13T17:34:04.403Z,16.90
2023-05-13T17:36:34.313Z,15.76
2023-05-13T17:39:03.504Z,15.42
2023-05-13T17:41:32.565Z,15.49
2023-05-13T17:44:01.586Z,15.49
2023-05-13T17:46:31.651Z,15.17
2023-05-13T17:49:00.694Z,14.56
2023-05-13T17:51:29.618Z,14.19
2023-05-13T17:53:58.629Z,13.52
2023-05-13T17:56:27.639Z,13.89
2023-05-13T17:58:56.278Z,14.14
2023-05-13T18:01:25.208Z,14.04
2023-05-13T18:03:55.641Z,14.10
2023-05-13T18:06:24.275Z,14.12
2023-05-13T18:08:53.158Z,14.49
2023-05-13T18:11:22.886Z,14.48
2023-05-13T18:13:51.884Z,14.45
2023-05-13T18:16:21.185Z,13.85
2023-05-13T18:18:50.253Z,13.70
2023-05-13T18:21:20.851Z,13.55
2023-05-13T18:23:49.885Z,13.44
2023-05-13T18:26:18.793Z,13.41
2023-05-13T18:28:47.513Z,13.34
2023-05-13T18:31:16.623Z,13.31
2023-05-13T18:33:45.690Z,13.29
2023-05-13T18:36:14.707Z,13.19
2023-05-13T18:38:46.038Z,13.14
2023-05-13T18:41:15.179Z,13.08
2023-05-13T18:43:43.807Z,13.06
2023-05-13T18:46:12.947Z,12.97
2023-05-13T18:48:41.858Z,13.40
2023-05-13T18:51:11.625Z,13.40
2023-05-13T18:53:42.868Z,13.37
2023-05-13T18:56:13.381Z,13.41
2023-05-13T18:58:42.127Z,13.34
2023-05-13T19:01:12.654Z,13.33
2023-05-13T19:03:42.044Z,13.25
2023-05-13T19:06:11.134Z,13.18
2023-05-13T19:08:40.296Z,13.03
2023-05-13T19:11:09.611Z,12.65
2023-05-13T19:13:46.705Z,12.86
2023-05-13T19:16:16.910Z,12.71
2023-05-13T19:18:46.002Z,12.69
2023-05-13T19:21:15.036Z,12.61
2023-05-13T19:23:43.999Z,12.13
2023-05-13T19:26:13.029Z,12.04
2023-05-13T19:28:43.920Z,12.02
2023-05-13T19:31:13.163Z,11.82
2023-05-13T19:33:44.658Z,11.74
2023-05-13T19:36:14.999Z,11.78
2023-05-13T19:38:44.269Z,12.10
2023-05-13T19:41:13.261Z,11.63
2023-05-13T19:43:43.316Z,11.97
2023-05-13T19:46:12.628Z,11.90
2023-05-13T19:48:41.602Z,11.87
2023-05-13T19:51:10.624Z,11.88
2023-05-13T19:53:39.596Z,11.87
2023-05-13T19:56:08.696Z,11.82
2023-05-13T19:58:37.316Z,11.79
2023-05-13T20:01:07.879Z,11.82
2023-05-13T20:03:37.035Z,11.84
2023-05-13T20:06:06.158Z,11.80
2023-05-13T20:08:36.068Z,11.77
2023-05-13T20:11:04.960Z,11.70
2023-05-13T20:13:33.527Z,11.63
2023-05-13T20:16:02.829Z,11.61
2023-05-13T20:18:33.470Z,11.59
2023-05-13T20:21:02.614Z,11.58
2023-05-13T20:23:31.706Z,11.53
2023-05-13T20:26:01.010Z,11.49
2023-05-13T20:28:29.730Z,11.50
2023-05-13T20:30:58.765Z,11.46
2023-05-13T20:33:27.805Z,11.35
2023-05-13T20:35:58.620Z,11.34
2023-05-13T20:38:27.584Z,11.40
2023-05-13T20:40:56.290Z,11.12
2023-05-13T20:43:25.272Z,11.34
2023-05-13T20:45:54.238Z,11.34
2023-05-13T20:48:23.263Z,11.39
2023-05-13T20:51:03.714Z,11.37
2023-05-13T20:53:33.242Z,11.30
2023-05-13T20:56:03.663Z,10.80
2023-05-13T20:58:32.297Z,10.64
2023-05-13T21:01:02.930Z,10.63
2023-05-13T21:03:32.092Z,10.56
2023-05-13T21:06:02.504Z,10.48
2023-05-13T21:08:31.088Z,10.75
2023-05-13T21:11:00.116Z,10.36
2023-05-13T21:13:28.658Z,10.28
2023-05-13T21:15:57.651Z,10.62
2023-05-13T21:18:26.773Z,10.67
2023-05-13T21:20:55.776Z,10.68
2023-05-13T21:23:26.128Z,10.35
2023-05-13T21:25:54.597Z,10.49
2023-05-13T21:28:24.136Z,10.55
2023-05-13T21:30:53.182Z,10.54
2023-05-13T21:33:22.010Z,10.52
2023-05-13T21:35:51.747Z,10.43
2023-05-13T21:38:20.685Z,10.43
2023-05-13T21:40:50.727Z,10.36
2023-05-13T21:43:19.300Z,10.34
2023-05-13T21:45:49.717Z,10.27
2023-05-13T21:48:19.380Z,10.23
2023-05-13T21:50:48.556Z,10.20
2023-05-13T21:53:17.490Z,10.16
2023-05-13T21:55:45.986Z,9.73
2023-05-13T21:58:16.394Z,10.03
2023-05-13T22:00:46.070Z,9.60
2023-05-13T22:03:15.052Z,9.47
2023-05-13T22:05:44.866Z,9.43
2023-05-13T22:08:13.871Z,9.46
2023-05-13T22:10:42.447Z,9.86
2023-05-13T22:13:11.503Z,9.73
2023-05-13T22:15:42.124Z,9.89
2023-05-13T22:18:11.414Z,9.74
2023-05-13T22:20:40.405Z,9.87
2023-05-13T22:23:09.424Z,9.45
2023-05-13T22:25:38.105Z,9.36
2023-05-13T22:28:08.032Z,9.33
2023-05-13T22:30:37.065Z,9.33
2023-05-13T22:33:07.607Z,9.29
2023-05-13T22:35:37.247Z,9.25
2023-05-13T22:38:06.251Z,9.19
2023-05-13T22:40:35.292Z,9.16
2023-05-13T22:43:04.317Z,9.09
2023-05-13T22:45:33.285Z,9.03
2023-05-13T22:48:02.230Z,9.00
2023-05-13T22:50:32.689Z,9.32
2023-05-13T22:53:01.879Z,9.41
2023-05-13T22:55:30.516Z,9.25
2023-05-13T22:57:59.626Z,9.31
2023-05-13T23:00:28.690Z,9.59
2023-05-13T23:02:57.825Z,9.16
2023-05-13T23:05:27.087Z,9.29
2023-05-13T23:07:57.000Z,9.49
2023-05-13T23:10:26.453Z,9.21
2023-05-13T23:12:55.488Z,9.42
2023-05-13T23:15:24.347Z,9.31
2023-05-13T23:17:53.360Z,9.53
2023-05-13T23:20:22.798Z,9.54
2023-05-13T23:22:51.681Z,9.46
2023-05-13T23:25:22.116Z,8.99
2023-05-13T23:27:52.324Z,8.85
2023-05-13T23:30:21.657Z,8.73
2023-05-13T23:32:51.135Z,8.95
2023-05-13T23:35:20.059Z,8.59
2023-05-13T23:37:48.657Z,8.54
2023-05-13T23:40:17.849Z,8.43
2023-05-13T23:42:48.250Z,8.57
2023-05-13T23:45:17.232Z,8.40
2023-05-13T23:47:46.285Z,8.15
2023-05-13T23:50:15.230Z,8.15
2023-05-13T23:52:44.352Z,8.14
2023-05-13T23:55:13.449Z,8.17
2023-05-13T23:57:42.497Z,8.23
